createdAt,value
2019-01-24T00:01:05.770Z,12.80
2019-01-24T00:03:35.205Z,9.70
2019-01-24T00:06:05.075Z,9.57
2019-01-24T00:08:34.496Z,5.50
2019-01-24T00:11:04.410Z,10.07
2019-01-24T00:13:33.836Z,10.97
2019-01-24T00:16:03.641Z,10.63
2019-01-24T00:18:33.072Z,8.87
2019-01-24T00:21:02.546Z,11.00
2019-01-24T00:23:32.335Z,6.53
2019-01-24T00:26:02.872Z,13.90
2019-01-24T00:28:32.568Z,10.10
2019-01-24T00:31:02.046Z,10.27
2019-01-24T00:33:31.487Z,3.73
2019-01-24T00:36:01.292Z,9.90
2019-01-24T00:38:30.740Z,4.93
2019-01-24T00:41:00.177Z,9.73
2019-01-24T00:43:29.634Z,8.80
2019-01-24T00:45:59.132Z,4.47
2019-01-24T00:48:28.542Z,7.17
2019-01-24T00:50:57.985Z,10.00
2019-01-24T00:53:27.708Z,8.60
2019-01-24T00:55:57.139Z,9.23
2019-01-24T00:58:26.590Z,9.07
2019-01-24T01:00:56.011Z,8.73
2019-01-24T01:03:25.950Z,10.20
2019-01-24T01:05:55.342Z,8.40
2019-01-24T01:08:25.465Z,8.93
2019-01-24T01:10:54.901Z,9.53
2019-01-24T01:13:24.526Z,7.27
2019-01-24T01:15:53.973Z,9.73
2019-01-24T01:18:23.449Z,3.50
2019-01-24T01:20:53.116Z,8.33
2019-01-24T01:23:22.542Z,5.60
2019-01-24T01:25:51.977Z,8.57
2019-01-24T01:28:21.401Z,7.67
2019-01-24T01:30:51.071Z,7.57
2019-01-24T01:33:20.485Z,8.40
2019-01-24T01:35:49.981Z,5.67
2019-01-24T01:38:19.829Z,3.20
2019-01-24T01:40:49.277Z,7.70
2019-01-24T01:43:18.717Z,8.17
2019-01-24T01:45:48.341Z,7.47
2019-01-24T01:48:17.823Z,10.77
2019-01-24T01:50:47.252Z,8.47
2019-01-24T01:53:16.765Z,2.93
2019-01-24T01:55:46.294Z,8.20
2019-01-24T01:58:15.743Z,7.57
2019-01-24T02:00:45.573Z,8.93
2019-01-24T02:03:15.011Z,7.77
2019-01-24T02:05:44.570Z,5.87
2019-01-24T02:08:14.270Z,8.03
2019-01-24T02:10:43.723Z,7.90
2019-01-24T02:13:13.271Z,6.20
2019-01-24T02:15:42.981Z,10.27
2019-01-24T02:18:12.563Z,16.30
2019-01-24T02:20:43.521Z,10.03
2019-01-24T02:23:12.997Z,8.13
2019-01-24T02:25:42.727Z,4.77
2019-01-24T02:28:12.172Z,6.03
2019-01-24T02:30:41.595Z,6.03
2019-01-24T02:33:11.180Z,3.83
2019-01-24T02:35:40.675Z,7.33
2019-01-24T02:38:10.131Z,7.70
2019-01-24T02:40:39.639Z,6.03
2019-01-24T02:43:09.244Z,7.47
2019-01-24T02:45:38.715Z,17.67
2019-01-24T02:48:08.183Z,7.87
2019-01-24T02:50:37.844Z,8.87
2019-01-24T02:53:07.285Z,8.53
2019-01-24T02:55:36.716Z,6.73
2019-01-24T02:58:06.409Z,3.37
2019-01-24T03:00:35.891Z,8.33
2019-01-24T03:03:05.307Z,4.07
2019-01-24T03:05:35.155Z,6.67
2019-01-24T03:08:04.613Z,5.50
2019-01-24T03:10:34.433Z,8.40
2019-01-24T03:13:03.897Z,6.27
2019-01-24T03:15:33.374Z,5.67
2019-01-24T03:18:03.170Z,7.20
2019-01-24T03:20:32.608Z,5.13
2019-01-24T03:23:02.060Z,6.73
2019-01-24T03:25:31.736Z,7.00
2019-01-24T03:28:01.188Z,6.70
2019-01-24T03:30:30.668Z,7.27
2019-01-24T03:33:00.517Z,6.40
2019-01-24T03:35:29.924Z,7.27
2019-01-24T03:37:59.344Z,7.67
2019-01-24T03:40:29.077Z,5.30
2019-01-24T03:42:58.526Z,8.23
2019-01-24T03:45:27.945Z,5.70
2019-01-24T03:47:57.376Z,5.97
2019-01-24T03:50:26.980Z,7.03
2019-01-24T03:52:56.585Z,7.67
2019-01-24T03:55:26.000Z,8.13
2019-01-24T03:57:55.936Z,8.17
2019-01-24T04:00:26.208Z,7.57
2019-01-24T04:02:56.053Z,5.20
2019-01-24T04:05:26.327Z,5.03
2019-01-24T04:07:55.752Z,5.53
2019-01-24T04:10:25.167Z,4.47
2019-01-24T04:12:54.925Z,6.70
2019-01-24T04:15:25.942Z,5.53
2019-01-24T04:17:55.429Z,6.73
2019-01-24T04:20:24.850Z,6.40
2019-01-24T04:22:54.496Z,5.00
2019-01-24T04:25:23.951Z,6.70
2019-01-24T04:27:53.430Z,6.90
2019-01-24T04:30:23.957Z,7.17
2019-01-24T04:32:53.532Z,6.47
2019-01-24T04:35:23.218Z,7.57
2019-01-24T04:37:53.080Z,6.73
2019-01-24T04:40:22.551Z,10.27
2019-01-24T04:42:51.975Z,7.77
2019-01-24T04:45:21.736Z,7.70
2019-01-24T04:47:51.208Z,7.03
2019-01-24T04:50:21.046Z,5.93
2019-01-24T04:52:50.500Z,7.93
2019-01-24T04:55:21.021Z,3.07
2019-01-24T04:57:50.829Z,10.70
2019-01-24T05:00:23.003Z,8.33
2019-01-24T05:02:52.496Z,8.27
2019-01-24T05:05:27.725Z,5.17
2019-01-24T05:07:53.563Z,2.83
2019-01-24T05:10:23.000Z,8.40
2019-01-24T05:12:52.713Z,7.97
2019-01-24T05:15:22.197Z,8.53
2019-01-24T05:17:51.653Z,4.40
2019-01-24T05:20:21.265Z,6.20
2019-01-24T05:22:50.744Z,7.83
2019-01-24T05:25:20.187Z,8.63
2019-01-24T05:27:49.834Z,6.30
2019-01-24T05:30:25.515Z,10.63
2019-01-24T05:32:55.429Z,6.50
2019-01-24T05:35:25.274Z,7.73
2019-01-24T05:37:54.728Z,6.57
2019-01-24T05:40:24.175Z,6.87
2019-01-24T05:42:53.627Z,7.93
2019-01-24T05:45:23.262Z,8.33
2019-01-24T05:47:52.712Z,8.73
2019-01-24T05:50:22.129Z,7.83
2019-01-24T05:52:51.542Z,8.43
2019-01-24T05:55:21.212Z,3.03
2019-01-24T05:57:50.637Z,6.20
2019-01-24T06:00:26.690Z,8.57
2019-01-24T06:02:56.166Z,9.47
2019-01-24T06:05:26.002Z,11.97
2019-01-24T06:07:55.465Z,8.73
2019-01-24T06:10:25.200Z,5.67
2019-01-24T06:12:54.655Z,9.90
2019-01-24T06:15:24.284Z,9.30
2019-01-24T06:17:54.061Z,9.13
2019-01-24T06:20:23.465Z,5.70
2019-01-24T06:22:52.957Z,8.30
2019-01-24T06:25:22.635Z,6.73
2019-01-24T06:27:52.066Z,2.77
2019-01-24T06:30:21.760Z,6.93
2019-01-24T06:32:51.346Z,6.20
2019-01-24T06:35:20.806Z,8.07
2019-01-24T06:37:51.137Z,4.77
2019-01-24T06:40:20.898Z,3.83
2019-01-24T06:42:50.351Z,7.80
2019-01-24T06:45:21.433Z,3.00
2019-01-24T06:47:51.006Z,5.83
2019-01-24T06:50:20.671Z,3.17
2019-01-24T06:52:50.140Z,6.73
2019-01-24T06:55:25.911Z,8.60
2019-01-24T06:57:55.603Z,6.67
2019-01-24T07:00:25.237Z,9.70
2019-01-24T07:02:54.687Z,11.33
2019-01-24T07:05:24.114Z,8.73
2019-01-24T07:07:53.865Z,7.23
2019-01-24T07:10:24.408Z,8.00
2019-01-24T07:12:53.856Z,7.50
2019-01-24T07:15:24.121Z,5.70
2019-01-24T07:17:53.788Z,7.97
2019-01-24T07:20:23.221Z,6.67
2019-01-24T07:22:52.685Z,8.60
2019-01-24T07:25:27.355Z,7.53
2019-01-24T07:27:56.860Z,8.60
2019-01-24T07:30:26.539Z,7.60
2019-01-24T07:32:55.950Z,3.27
2019-01-24T07:35:25.379Z,7.50
2019-01-24T07:37:54.899Z,7.23
2019-01-24T07:40:24.672Z,9.37
2019-01-24T07:42:54.181Z,9.97
2019-01-24T07:45:26.463Z,10.10
2019-01-24T07:47:56.190Z,9.27
2019-01-24T07:50:25.744Z,5.93
2019-01-24T07:52:55.552Z,10.07
2019-01-24T07:55:25.081Z,8.83
2019-01-24T07:57:54.599Z,8.03
2019-01-24T08:00:26.052Z,9.60
2019-01-24T08:02:55.540Z,10.37
2019-01-24T08:05:26.641Z,10.27
2019-01-24T08:07:56.866Z,5.80
2019-01-24T08:10:27.000Z,20.83
2019-01-24T08:12:56.533Z,9.70
2019-01-24T08:15:26.328Z,7.07
2019-01-24T08:17:55.857Z,7.77
2019-01-24T08:20:27.887Z,7.00
2019-01-24T08:22:57.361Z,15.10
2019-01-24T08:25:27.146Z,10.03
2019-01-24T08:27:56.612Z,17.93
2019-01-24T08:30:31.496Z,13.43
2019-01-24T08:33:01.089Z,22.00
2019-01-24T08:35:31.075Z,9.53
2019-01-24T08:38:00.537Z,8.90
2019-01-24T08:40:30.264Z,10.30
2019-01-24T08:42:59.890Z,7.47
2019-01-24T08:45:29.529Z,9.93
2019-01-24T08:47:59.044Z,11.70
2019-01-24T08:50:29.108Z,14.30
2019-01-24T08:52:58.626Z,12.53
2019-01-24T08:55:47.434Z,26.12
2019-01-24T08:58:17.183Z,18.20
2019-01-24T09:00:46.903Z,42.70
2019-01-24T09:03:17.132Z,34.23
2019-01-24T09:05:47.026Z,14.87
2019-01-24T09:08:16.594Z,26.05
2019-01-24T09:10:46.366Z,18.55
2019-01-24T09:13:16.155Z,22.87
2019-01-24T09:15:45.705Z,11.90
2019-01-24T09:18:15.243Z,11.88
2019-01-24T09:20:44.776Z,19.32
2019-01-24T09:23:14.273Z,13.50
2019-01-24T09:25:43.795Z,26.65
2019-01-24T09:28:14.939Z,17.13
2019-01-24T09:30:44.879Z,25.05
2019-01-24T09:33:14.675Z,10.95
2019-01-24T09:35:44.264Z,17.62
2019-01-24T09:38:13.806Z,13.78
2019-01-24T09:40:43.303Z,9.95
2019-01-24T09:43:12.923Z,9.43
2019-01-24T09:45:42.509Z,10.90
2019-01-24T09:48:12.031Z,10.30
2019-01-24T09:50:41.735Z,10.85
2019-01-24T09:53:11.281Z,11.05
2019-01-24T09:55:41.537Z,10.75
2019-01-24T09:58:11.205Z,10.20
2019-01-24T10:00:40.682Z,10.30
2019-01-24T10:03:10.302Z,11.05
2019-01-24T10:05:39.919Z,19.52
2019-01-24T10:08:09.889Z,11.90
2019-01-24T10:10:39.464Z,12.45
2019-01-24T10:13:08.990Z,12.40
2019-01-24T10:15:38.861Z,12.60
2019-01-24T10:18:08.815Z,13.35
2019-01-24T10:20:38.279Z,14.10
2019-01-24T10:23:07.719Z,13.90
2019-01-24T10:25:41.369Z,80.92
2019-01-24T10:28:11.155Z,54.63
2019-01-24T10:30:43.046Z,56.48
2019-01-24T10:33:12.054Z,36.28
2019-01-24T10:35:41.516Z,51.25
2019-01-24T10:38:10.951Z,51.88
2019-01-24T10:40:40.639Z,33.35
2019-01-24T10:43:10.163Z,29.10
2019-01-24T10:45:39.600Z,36.40
2019-01-24T10:48:09.742Z,56.23
2019-01-24T10:50:39.825Z,26.93
2019-01-24T10:53:09.292Z,21.60
2019-01-24T10:55:38.918Z,19.27
2019-01-24T10:58:08.664Z,26.53
2019-01-24T11:00:41.688Z,15.70
2019-01-24T11:03:16.470Z,14.63
2019-01-24T11:05:45.992Z,19.12
2019-01-24T11:08:16.110Z,16.97
2019-01-24T11:10:46.764Z,56.95
2019-01-24T11:13:16.286Z,12.23
2019-01-24T11:15:46.552Z,12.03
2019-01-24T11:18:15.976Z,13.62
2019-01-24T11:20:45.709Z,11.95
2019-01-24T11:23:15.148Z,10.60
2019-01-24T11:25:44.578Z,8.13
2019-01-24T11:28:14.057Z,8.20
2019-01-24T11:30:43.686Z,7.25
2019-01-24T11:33:13.193Z,9.15
2019-01-24T11:35:42.606Z,9.48
2019-01-24T11:38:12.154Z,8.25
2019-01-24T11:40:41.623Z,12.73
2019-01-24T11:43:11.182Z,9.08
2019-01-24T11:45:43.407Z,8.50
2019-01-24T11:48:13.002Z,11.50
2019-01-24T11:50:42.518Z,9.85
2019-01-24T11:53:11.961Z,11.20
2019-01-24T11:55:41.740Z,13.65
2019-01-24T11:58:11.213Z,11.38
2019-01-24T12:00:49.291Z,14.83
2019-01-24T12:03:18.989Z,20.10
2019-01-24T12:05:48.481Z,27.27
2019-01-24T12:08:17.914Z,12.18
2019-01-24T12:10:47.412Z,16.42
2019-01-24T12:13:16.915Z,9.80
2019-01-24T12:15:46.395Z,9.08
2019-01-24T12:18:15.874Z,14.43
2019-01-24T12:20:45.621Z,15.25
2019-01-24T12:23:15.081Z,11.70
2019-01-24T12:25:44.557Z,9.03
2019-01-24T12:28:14.190Z,10.88
2019-01-24T12:30:43.556Z,8.37
2019-01-24T12:33:13.045Z,11.95
2019-01-24T12:35:42.980Z,10.85
2019-01-24T12:38:12.446Z,12.43
2019-01-24T12:40:42.570Z,13.22
2019-01-24T12:43:11.981Z,14.93
2019-01-24T12:45:41.733Z,26.50
2019-01-24T12:48:11.232Z,7.77
2019-01-24T12:50:41.238Z,12.95
2019-01-24T12:53:10.696Z,11.68
2019-01-24T12:55:40.111Z,41.60
2019-01-24T12:58:09.672Z,44.70
2019-01-24T13:00:40.079Z,22.60
2019-01-24T13:03:09.573Z,55.20
2019-01-24T13:05:39.268Z,88.37
2019-01-24T13:08:08.787Z,16.10
2019-01-24T13:10:38.424Z,26.35
2019-01-24T13:13:08.166Z,23.02
2019-01-24T13:15:37.744Z,18.65
2019-01-24T13:18:07.466Z,8.48
2019-01-24T13:20:36.934Z,10.00
2019-01-24T13:23:07.713Z,10.82
2019-01-24T13:25:37.192Z,14.55
2019-01-24T13:28:07.416Z,14.73
2019-01-24T13:30:36.940Z,12.43
2019-01-24T13:33:07.615Z,10.68
2019-01-24T13:35:37.452Z,11.97
2019-01-24T13:38:07.564Z,10.35
2019-01-24T13:40:37.195Z,10.20
2019-01-24T13:43:07.569Z,9.13
2019-01-24T13:45:38.924Z,10.75
2019-01-24T13:48:08.528Z,9.17
2019-01-24T13:50:38.198Z,9.00
2019-01-24T13:53:08.276Z,12.07
2019-01-24T13:55:39.336Z,9.23
2019-01-24T13:58:08.985Z,8.08
2019-01-24T14:00:39.892Z,12.20
2019-01-24T14:03:56.430Z,10.85
2019-01-24T14:06:26.040Z,18.75
2019-01-24T14:08:55.478Z,22.65
2019-01-24T14:11:24.930Z,17.50
2019-01-24T14:13:54.793Z,21.27
2019-01-24T14:16:24.237Z,19.05
2019-01-24T14:18:53.674Z,27.50
2019-01-24T14:21:23.348Z,23.42
2019-01-24T14:23:52.796Z,32.17
2019-01-24T14:26:22.276Z,18.87
2019-01-24T14:28:51.866Z,24.02
2019-01-24T14:31:21.547Z,36.08
2019-01-24T14:33:51.252Z,16.50
2019-01-24T14:36:25.281Z,19.90
2019-01-24T14:38:52.207Z,30.27
2019-01-24T14:41:21.875Z,27.20
2019-01-24T14:43:51.311Z,37.75
2019-01-24T14:46:20.783Z,32.88
2019-01-24T14:48:50.753Z,20.07
2019-01-24T14:51:20.174Z,28.85
2019-01-24T14:53:50.041Z,23.75
2019-01-24T14:56:19.516Z,28.15
2019-01-24T14:58:49.135Z,25.92
2019-01-24T15:01:22.447Z,31.00
2019-01-24T15:03:51.928Z,33.45
2019-01-24T15:06:21.399Z,28.07
2019-01-24T15:08:50.904Z,30.90
2019-01-24T15:11:20.347Z,28.77
2019-01-24T15:13:49.810Z,39.63
2019-01-24T15:16:19.284Z,37.73
2019-01-24T15:18:48.864Z,24.57
2019-01-24T15:21:18.350Z,25.68
2019-01-24T15:23:47.845Z,31.07
2019-01-24T15:26:17.354Z,24.52
2019-01-24T15:28:46.937Z,25.08
2019-01-24T15:31:16.395Z,26.80
2019-01-24T15:33:45.852Z,33.87
2019-01-24T15:36:15.737Z,48.23
2019-01-24T15:38:45.263Z,51.60
2019-01-24T15:41:14.697Z,155.03
2019-01-24T15:43:44.148Z,174.02
2019-01-24T15:46:13.735Z,52.83
2019-01-24T15:48:43.291Z,24.10
2019-01-24T15:51:12.864Z,27.02
2019-01-24T15:53:42.298Z,64.07
2019-01-24T15:56:11.803Z,115.25
2019-01-24T15:58:41.290Z,125.35
2019-01-24T16:01:10.780Z,179.17
2019-01-24T16:03:40.281Z,195.00
2019-01-24T16:06:09.954Z,98.97
2019-01-24T16:08:39.389Z,99.10
2019-01-24T16:11:08.884Z,108.85
2019-01-24T16:13:38.417Z,153.12
2019-01-24T16:16:08.004Z,122.17
2019-01-24T16:18:37.450Z,98.33
2019-01-24T16:21:06.946Z,101.27
2019-01-24T16:23:36.371Z,148.40
2019-01-24T16:26:06.320Z,57.75
2019-01-24T16:28:36.013Z,157.93
2019-01-24T16:31:05.796Z,50.92
2019-01-24T16:33:35.676Z,64.07
2019-01-24T16:36:05.864Z,54.97
2019-01-24T16:38:35.376Z,31.73
2019-01-24T16:41:04.811Z,35.08
2019-01-24T16:43:34.637Z,30.90
2019-01-24T16:46:04.243Z,65.45
2019-01-24T16:48:33.731Z,96.15
2019-01-24T16:51:03.186Z,66.03
2019-01-24T16:53:32.638Z,104.67
2019-01-24T16:56:02.216Z,50.08
2019-01-24T16:58:31.708Z,40.20
2019-01-24T17:01:19.180Z,41.63
2019-01-24T17:03:48.694Z,35.38
2019-01-24T17:06:18.192Z,29.70
2019-01-24T17:08:48.579Z,35.10
2019-01-24T17:11:18.413Z,48.60
2019-01-24T17:13:48.292Z,41.90
2019-01-24T17:16:17.741Z,28.42
2019-01-24T17:18:47.358Z,27.73
2019-01-24T17:21:16.821Z,33.33
2019-01-24T17:23:47.739Z,25.85
2019-01-24T17:26:17.245Z,25.35
2019-01-24T17:28:46.736Z,22.50
2019-01-24T17:31:16.240Z,25.00
2019-01-24T17:33:45.812Z,22.90
2019-01-24T17:36:15.405Z,18.53
2019-01-24T17:38:44.893Z,21.70
2019-01-24T17:41:14.668Z,17.30
2019-01-24T17:43:44.210Z,18.70
2019-01-24T17:46:13.733Z,22.80
2019-01-24T17:48:43.220Z,23.38
2019-01-24T17:51:12.703Z,20.52
2019-01-24T17:53:42.206Z,22.07
2019-01-24T17:56:11.930Z,26.02
2019-01-24T17:58:41.384Z,28.27
2019-01-24T18:01:10.917Z,28.42
2019-01-24T18:03:40.494Z,28.05
2019-01-24T18:06:10.041Z,30.23
2019-01-24T18:08:39.431Z,30.10
2019-01-24T18:11:08.962Z,27.77
2019-01-24T18:13:38.422Z,31.82
2019-01-24T18:16:07.898Z,29.12
2019-01-24T18:18:38.004Z,41.58
2019-01-24T18:21:07.594Z,43.60
2019-01-24T18:23:37.308Z,52.97
2019-01-24T18:26:06.814Z,30.62
2019-01-24T18:28:36.215Z,25.63
2019-01-24T18:31:05.954Z,28.57
2019-01-24T18:33:35.386Z,32.17
2019-01-24T18:36:05.165Z,32.40
2019-01-24T18:38:38.487Z,32.20
2019-01-24T18:41:08.776Z,19.25
2019-01-24T18:43:37.228Z,24.95
2019-01-24T18:46:06.803Z,22.37
2019-01-24T18:48:36.472Z,25.37
2019-01-24T18:51:06.008Z,23.12
2019-01-24T18:53:35.448Z,23.25
2019-01-24T18:56:05.009Z,22.83
2019-01-24T18:58:35.012Z,25.07
2019-01-24T19:01:04.707Z,23.87
2019-01-24T19:03:34.233Z,25.25
2019-01-24T19:06:06.172Z,24.57
2019-01-24T19:08:35.712Z,28.05
2019-01-24T19:11:05.494Z,43.98
2019-01-24T19:13:34.948Z,32.83
2019-01-24T19:16:04.592Z,22.62
2019-01-24T19:18:34.017Z,20.87
2019-01-24T19:21:03.561Z,20.08
2019-01-24T19:23:33.095Z,24.70
2019-01-24T19:26:02.604Z,38.67
2019-01-24T19:28:32.105Z,27.65
2019-01-24T19:31:01.970Z,42.60
2019-01-24T19:33:31.483Z,20.17
2019-01-24T19:36:01.329Z,17.70
2019-01-24T19:38:30.745Z,21.20
2019-01-24T19:41:00.605Z,16.55
2019-01-24T19:43:30.042Z,16.47
2019-01-24T19:45:59.449Z,13.58
2019-01-24T19:48:29.177Z,18.85
2019-01-24T19:50:58.570Z,21.65
2019-01-24T19:53:28.042Z,15.65
2019-01-24T19:55:57.809Z,16.90
2019-01-24T19:58:27.308Z,17.82
2019-01-24T20:00:57.465Z,19.70
2019-01-24T20:03:26.953Z,16.65
2019-01-24T20:05:56.443Z,15.67
2019-01-24T20:08:26.046Z,16.82
2019-01-24T20:10:55.502Z,18.40
2019-01-24T20:13:24.964Z,18.17
2019-01-24T20:15:54.890Z,18.52
2019-01-24T20:18:24.643Z,15.53
2019-01-24T20:20:54.167Z,20.17
2019-01-24T20:23:23.582Z,20.10
2019-01-24T20:25:53.399Z,21.02
2019-01-24T20:28:23.001Z,16.80
2019-01-24T20:30:52.450Z,18.63
2019-01-24T20:33:21.908Z,16.07
2019-01-24T20:35:57.304Z,17.98
2019-01-24T20:38:27.011Z,22.75
2019-01-24T20:40:56.439Z,25.65
2019-01-24T20:43:25.909Z,18.40
2019-01-24T20:45:55.379Z,16.42
2019-01-24T20:48:24.870Z,18.98
2019-01-24T20:50:55.151Z,14.60
2019-01-24T20:53:24.674Z,15.70
2019-01-24T20:55:54.158Z,14.38
2019-01-24T20:58:23.606Z,19.05
2019-01-24T21:00:53.123Z,12.40
2019-01-24T21:03:22.692Z,40.20
2019-01-24T21:05:52.212Z,17.62
2019-01-24T21:08:21.657Z,15.50
2019-01-24T21:10:51.131Z,13.93
2019-01-24T21:13:20.567Z,16.77
2019-01-24T21:15:50.108Z,16.40
2019-01-24T21:18:19.615Z,19.27
2019-01-24T21:20:49.084Z,17.00
2019-01-24T21:23:18.548Z,15.78
2019-01-24T21:25:48.138Z,15.72
2019-01-24T21:28:17.624Z,15.03
2019-01-24T21:30:47.129Z,14.75
2019-01-24T21:33:16.585Z,15.83
2019-01-24T21:35:46.064Z,14.95
2019-01-24T21:38:15.508Z,15.85
2019-01-24T21:40:44.961Z,16.37
2019-01-24T21:43:14.415Z,29.70
2019-01-24T21:45:43.856Z,19.35
2019-01-24T21:48:13.476Z,19.50
2019-01-24T21:50:42.928Z,16.62
2019-01-24T21:53:12.357Z,15.98
2019-01-24T21:55:41.876Z,14.30
2019-01-24T21:58:11.522Z,15.35
2019-01-24T22:00:41.019Z,15.68
2019-01-24T22:03:10.476Z,14.20
2019-01-24T22:05:39.990Z,16.33
2019-01-24T22:08:09.431Z,14.33
2019-01-24T22:10:39.292Z,14.33
2019-01-24T22:13:08.927Z,17.20
2019-01-24T22:15:38.742Z,15.30
2019-01-24T22:18:09.966Z,14.45
2019-01-24T22:20:39.566Z,15.40
2019-01-24T22:23:09.406Z,14.10
2019-01-24T22:25:39.877Z,14.20
2019-01-24T22:28:09.628Z,16.85
2019-01-24T22:30:54.662Z,13.38
2019-01-24T22:33:24.078Z,12.82
2019-01-24T22:35:53.594Z,13.62
2019-01-24T22:38:23.210Z,17.48
2019-01-24T22:40:52.709Z,16.62
2019-01-24T22:43:22.232Z,14.65
2019-01-24T22:45:51.743Z,15.85
2019-01-24T22:48:21.243Z,14.93
2019-01-24T22:50:50.598Z,16.05
2019-01-24T22:53:20.168Z,16.10
2019-01-24T22:55:49.694Z,12.90
2019-01-24T22:58:19.105Z,12.88
2019-01-24T23:01:12.126Z,17.25
2019-01-24T23:03:47.165Z,14.10
2019-01-24T23:06:16.709Z,13.93
2019-01-24T23:08:46.180Z,14.35
2019-01-24T23:11:15.651Z,22.52
2019-01-24T23:13:45.487Z,21.45
2019-01-24T23:16:14.943Z,18.50
2019-01-24T23:18:44.396Z,18.82
2019-01-24T23:21:13.999Z,13.90
2019-01-24T23:23:43.466Z,15.53
2019-01-24T23:26:12.937Z,17.00
2019-01-24T23:28:42.776Z,13.80
2019-01-24T23:31:12.246Z,13.75
2019-01-24T23:33:41.917Z,13.18
2019-01-24T23:36:11.504Z,15.08
2019-01-24T23:38:40.964Z,11.05
2019-01-24T23:41:10.691Z,13.55
2019-01-24T23:43:40.784Z,15.28
2019-01-24T23:46:10.346Z,17.00
2019-01-24T23:48:39.772Z,16.42
2019-01-24T23:51:09.575Z,14.03
2019-01-24T23:53:39.198Z,14.58
2019-01-24T23:56:08.647Z,14.30
2019-01-24T23:58:38.203Z,13.22
